createdAt,value
2023-04-23T00:00:13.215Z,17.99
2023-04-23T00:02:40.177Z,17.98
2023-04-23T00:05:07.457Z,17.97
2023-04-23T00:07:34.724Z,17.97
2023-04-23T00:10:05.564Z,17.96
2023-04-23T00:12:32.540Z,17.94
2023-04-23T00:15:00.429Z,17.92
2023-04-23T00:17:27.549Z,17.92
2023-04-23T00:19:54.375Z,17.90
2023-04-23T00:22:22.019Z,17.91
2023-04-23T00:24:48.579Z,17.88
2023-04-23T00:27:15.208Z,17.88
2023-04-23T00:29:43.225Z,17.87
2023-04-23T00:32:09.829Z,17.87
2023-04-23T00:34:36.456Z,17.85
2023-04-23T00:37:06.675Z,17.86
2023-04-23T00:39:33.285Z,17.84
2023-04-23T00:42:06.969Z,17.84
2023-04-23T00:44:33.420Z,17.82
2023-04-23T00:47:00.712Z,17.86
2023-04-23T00:49:28.134Z,17.83
2023-04-23T00:51:54.770Z,17.82
2023-04-23T00:54:22.091Z,17.82
2023-04-23T00:56:49.602Z,17.82
2023-04-23T00:59:16.155Z,17.81
2023-04-23T01:01:45.461Z,17.82
2023-04-23T01:04:17.615Z,17.81
2023-04-23T01:06:47.077Z,17.82
2023-04-23T01:09:15.779Z,17.81
2023-04-23T01:11:43.434Z,17.82
2023-04-23T01:14:11.437Z,17.80
2023-04-23T01:16:38.661Z,17.80
2023-04-23T01:19:10.159Z,17.80
2023-04-23T01:21:41.115Z,17.80
2023-04-23T01:24:08.804Z,17.79
2023-04-23T01:26:35.606Z,17.80
2023-04-23T01:29:02.576Z,17.79
2023-04-23T01:31:30.645Z,17.79
2023-04-23T01:33:58.727Z,17.78
2023-04-23T01:36:25.420Z,17.78
2023-04-23T01:38:53.153Z,17.78
2023-04-23T01:41:22.699Z,17.79
2023-04-23T01:43:49.504Z,17.76
2023-04-23T01:46:16.358Z,17.76
2023-04-23T01:48:43.090Z,17.76
2023-04-23T01:51:09.607Z,17.75
2023-04-23T01:53:36.172Z,17.76
2023-04-23T01:56:03.712Z,17.76
2023-04-23T01:58:30.241Z,17.74
2023-04-23T02:00:57.116Z,17.73
2023-04-23T02:03:23.839Z,17.73
2023-04-23T02:05:50.915Z,17.73
2023-04-23T02:08:17.554Z,17.72
2023-04-23T02:10:44.175Z,17.72
2023-04-23T02:13:10.789Z,17.70
2023-04-23T02:15:38.222Z,17.71
2023-04-23T02:18:04.918Z,17.70
2023-04-23T02:20:31.575Z,17.70
2023-04-23T02:22:58.173Z,17.68
2023-04-23T02:25:24.651Z,17.69
2023-04-23T02:27:51.210Z,17.69
2023-04-23T02:30:17.777Z,17.68
2023-04-23T02:32:44.467Z,17.68
2023-04-23T02:35:11.068Z,17.68
2023-04-23T02:37:37.658Z,17.68
2023-04-23T02:40:08.132Z,17.67
2023-04-23T02:42:34.801Z,17.67
2023-04-23T02:45:01.457Z,17.66
2023-04-23T02:47:28.011Z,17.66
2023-04-23T02:49:54.574Z,17.64
2023-04-23T02:52:21.379Z,17.64
2023-04-23T02:54:48.363Z,17.64
2023-04-23T02:57:16.409Z,17.64
2023-04-23T02:59:43.446Z,17.63
2023-04-23T03:02:10.146Z,17.60
2023-04-23T03:04:36.867Z,17.60
2023-04-23T03:07:03.428Z,17.59
2023-04-23T03:09:30.132Z,17.58
2023-04-23T03:11:57.694Z,17.57
2023-04-23T03:14:24.288Z,17.58
2023-04-23T03:16:50.847Z,17.57
2023-04-23T03:19:17.461Z,17.56
2023-04-23T03:21:43.962Z,17.56
2023-04-23T03:24:13.506Z,17.54
2023-04-23T03:26:40.002Z,17.55
2023-04-23T03:29:06.904Z,17.54
2023-04-23T03:31:33.630Z,17.52
2023-04-23T03:34:00.395Z,17.52
2023-04-23T03:36:26.928Z,17.52
2023-04-23T03:38:53.403Z,17.52
2023-04-23T03:41:19.920Z,17.51
2023-04-23T03:43:46.509Z,17.51
2023-04-23T03:46:13.076Z,17.51
2023-04-23T03:48:39.670Z,17.50
2023-04-23T03:51:06.213Z,17.49
2023-04-23T03:53:32.744Z,17.49
2023-04-23T03:55:59.273Z,17.49
2023-04-23T03:58:26.071Z,17.48
2023-04-23T04:00:52.667Z,17.48
2023-04-23T04:03:19.311Z,17.48
2023-04-23T04:05:45.964Z,17.47
2023-04-23T04:08:12.552Z,17.47
2023-04-23T04:10:39.141Z,17.47
2023-04-23T04:13:05.670Z,17.47
2023-04-23T04:15:33.109Z,17.47
2023-04-23T04:18:01.183Z,17.46
2023-04-23T04:20:30.652Z,17.45
2023-04-23T04:22:57.143Z,17.46
2023-04-23T04:25:24.186Z,17.45
2023-04-23T04:27:50.870Z,17.45
2023-04-23T04:30:17.425Z,17.45
2023-04-23T04:32:45.660Z,17.44
2023-04-23T04:35:15.476Z,17.44
2023-04-23T04:37:44.052Z,17.44
2023-04-23T04:40:11.653Z,17.44
2023-04-23T04:42:39.170Z,17.44
2023-04-23T04:45:06.323Z,17.44
2023-04-23T04:47:32.927Z,17.44
2023-04-23T04:50:00.502Z,17.43
2023-04-23T04:52:27.669Z,17.42
2023-04-23T04:54:54.209Z,17.42
2023-04-23T04:57:22.859Z,17.43
2023-04-23T04:59:50.295Z,17.42
2023-04-23T05:02:17.096Z,17.44
2023-04-23T05:04:44.018Z,17.44
2023-04-23T05:07:11.125Z,17.47
2023-04-23T05:09:37.682Z,17.48
2023-04-23T05:12:07.325Z,17.50
2023-04-23T05:14:34.125Z,17.50
2023-04-23T05:17:00.908Z,17.52
2023-04-23T05:19:27.491Z,17.54
2023-04-23T05:21:54.053Z,17.56
2023-04-23T05:24:20.721Z,17.55
2023-04-23T05:26:47.277Z,17.58
2023-04-23T05:29:17.865Z,17.59
2023-04-23T05:31:44.490Z,17.60
2023-04-23T05:34:11.039Z,17.62
2023-04-23T05:36:37.551Z,17.63
2023-04-23T05:39:04.102Z,17.64
2023-04-23T05:41:30.672Z,17.66
2023-04-23T05:43:57.171Z,17.68
2023-04-23T05:46:23.759Z,17.69
2023-04-23T05:48:50.349Z,17.73
2023-04-23T05:51:17.212Z,17.75
2023-04-23T05:53:43.798Z,17.79
2023-04-23T05:56:10.332Z,17.81
2023-04-23T05:58:38.766Z,17.84
2023-04-23T06:01:05.413Z,17.87
2023-04-23T06:03:32.031Z,17.88
2023-04-23T06:05:58.799Z,17.91
2023-04-23T06:08:25.486Z,17.94
2023-04-23T06:10:52.065Z,17.96
2023-04-23T06:13:18.618Z,17.97
2023-04-23T06:15:45.264Z,17.99
2023-04-23T06:18:11.861Z,18.00
2023-04-23T06:20:38.561Z,18.03
2023-04-23T06:23:05.111Z,18.04
2023-04-23T06:25:31.593Z,18.07
2023-04-23T06:27:58.254Z,18.09
2023-04-23T06:30:24.821Z,18.10
2023-04-23T06:32:51.509Z,18.12
2023-04-23T06:35:18.066Z,18.12
2023-04-23T06:37:44.566Z,18.15
2023-04-23T06:40:11.437Z,18.16
2023-04-23T06:42:37.975Z,18.17
2023-04-23T06:45:06.348Z,18.18
2023-04-23T06:47:33.305Z,18.20
2023-04-23T06:50:00.276Z,18.21
2023-04-23T06:52:27.306Z,18.23
2023-04-23T06:54:53.864Z,18.25
2023-04-23T06:57:21.841Z,18.25
2023-04-23T06:59:48.415Z,18.25
2023-04-23T07:02:14.958Z,18.28
2023-04-23T07:04:41.958Z,18.29
2023-04-23T07:07:08.741Z,18.30
2023-04-23T07:09:35.251Z,18.31
2023-04-23T07:12:02.295Z,18.33
2023-04-23T07:14:28.992Z,18.34
2023-04-23T07:16:55.619Z,18.33
2023-04-23T07:19:22.255Z,18.35
2023-04-23T07:21:48.786Z,18.35
2023-04-23T07:24:15.480Z,18.35
2023-04-23T07:26:42.031Z,18.35
2023-04-23T07:29:10.592Z,18.36
2023-04-23T07:31:37.451Z,18.36
2023-04-23T07:34:04.016Z,18.35
2023-04-23T07:36:32.004Z,18.35
2023-04-23T07:38:58.728Z,18.36
2023-04-23T07:41:25.384Z,18.36
2023-04-23T07:43:52.053Z,18.37
2023-04-23T07:46:18.709Z,18.37
2023-04-23T07:48:45.245Z,18.37
2023-04-23T07:51:12.422Z,18.37
2023-04-23T07:53:38.962Z,18.37
2023-04-23T07:56:05.615Z,18.38
2023-04-23T07:58:33.240Z,18.38
2023-04-23T08:00:59.813Z,18.38
2023-04-23T08:03:28.216Z,18.38
2023-04-23T08:05:54.864Z,18.39
2023-04-23T08:08:21.405Z,18.38
2023-04-23T08:10:48.061Z,18.40
2023-04-23T08:13:14.587Z,18.41
2023-04-23T08:15:41.104Z,18.40
2023-04-23T08:18:07.661Z,18.41
2023-04-23T08:20:34.799Z,18.42
2023-04-23T08:23:01.511Z,18.43
2023-04-23T08:25:28.057Z,18.44
2023-04-23T08:27:54.595Z,18.45
2023-04-23T08:30:21.225Z,18.45
2023-04-23T08:32:51.109Z,18.45
2023-04-23T08:35:18.014Z,18.46
2023-04-23T08:37:44.668Z,18.47
2023-04-23T08:40:11.498Z,18.49
2023-04-23T08:42:57.262Z,18.50
2023-04-23T08:45:26.143Z,18.52
2023-04-23T08:48:00.286Z,18.55
2023-04-23T08:50:29.270Z,18.56
2023-04-23T08:52:57.662Z,18.57
2023-04-23T08:55:25.830Z,18.58
2023-04-23T08:57:52.492Z,18.61
2023-04-23T09:00:21.485Z,18.63
2023-04-23T09:02:50.284Z,18.68
2023-04-23T09:05:17.316Z,18.72
2023-04-23T09:07:44.154Z,18.76
2023-04-23T09:10:12.892Z,18.80
2023-04-23T09:12:43.823Z,18.85
2023-04-23T09:15:11.293Z,18.87
2023-04-23T09:17:41.021Z,18.91
2023-04-23T09:20:09.696Z,18.95
2023-04-23T09:22:47.354Z,18.99
2023-04-23T09:25:17.739Z,19.06
2023-04-23T09:27:46.385Z,19.11
2023-04-23T09:30:13.944Z,19.17
2023-04-23T09:32:43.300Z,19.25
2023-04-23T09:35:13.514Z,19.32
2023-04-23T09:37:48.500Z,19.38
2023-04-23T09:40:20.706Z,19.45
2023-04-23T09:42:55.770Z,19.53
2023-04-23T09:45:24.225Z,19.61
2023-04-23T09:47:55.554Z,19.68
2023-04-23T09:50:40.892Z,19.72
2023-04-23T09:53:09.324Z,19.78
2023-04-23T09:55:42.631Z,19.84
2023-04-23T09:58:13.692Z,19.91
2023-04-23T10:00:40.986Z,20.00
2023-04-23T10:03:09.902Z,20.04
2023-04-23T10:08:16.051Z,20.15
2023-04-23T10:10:57.519Z,20.15
2023-04-23T10:13:29.908Z,20.16
2023-04-23T10:16:04.486Z,20.20
2023-04-23T10:18:37.867Z,20.28
2023-04-23T10:21:05.599Z,20.33
2023-04-23T10:23:34.253Z,20.38
2023-04-23T10:26:04.298Z,20.42
2023-04-23T10:28:33.854Z,20.45
2023-04-23T10:31:01.088Z,20.48
2023-04-23T10:33:35.240Z,20.52
2023-04-23T10:36:07.494Z,20.54
2023-04-23T10:38:36.670Z,20.55
2023-04-23T10:41:05.836Z,20.55
2023-04-23T10:43:32.615Z,20.56
2023-04-23T10:46:00.835Z,20.58
2023-04-23T10:48:50.392Z,20.56
2023-04-23T10:52:02.574Z,20.56
2023-04-23T10:54:04.657Z,20.55
2023-04-23T10:56:31.987Z,20.55
2023-04-23T10:58:58.641Z,20.54
2023-04-23T11:01:28.015Z,20.52
2023-04-23T11:03:55.097Z,20.53
2023-04-23T11:06:49.589Z,20.51
2023-04-23T11:09:36.554Z,20.50
2023-04-23T11:12:07.260Z,20.51
2023-04-23T11:14:43.737Z,20.50
2023-04-23T11:17:16.036Z,20.49
2023-04-23T11:20:03.068Z,20.49
2023-04-23T11:22:58.922Z,20.45
2023-04-23T11:25:27.843Z,20.48
2023-04-23T11:27:58.157Z,20.49
2023-04-23T11:30:28.222Z,20.48
2023-04-23T11:32:56.393Z,20.51
2023-04-23T11:35:28.400Z,20.51
2023-04-23T11:37:55.374Z,20.54
2023-04-23T11:40:22.650Z,20.56
2023-04-23T11:42:51.559Z,20.58
2023-04-23T11:45:28.746Z,20.58
2023-04-23T11:48:00.754Z,20.60
2023-04-23T11:50:30.669Z,20.59
2023-04-23T11:52:57.439Z,20.59
2023-04-23T11:55:24.084Z,20.58
2023-04-23T11:57:52.556Z,20.57
2023-04-23T12:00:19.579Z,20.55
2023-04-23T12:02:56.505Z,20.52
2023-04-23T12:05:33.852Z,20.52
2023-04-23T12:08:34.927Z,20.53
2023-04-23T12:11:03.275Z,20.53
2023-04-23T12:13:33.477Z,20.53
2023-04-23T12:16:02.568Z,20.55
2023-04-23T12:18:29.074Z,20.54
2023-04-23T12:20:56.349Z,20.55
2023-04-23T12:23:28.119Z,20.57
2023-04-23T12:25:55.154Z,20.59
2023-04-23T12:28:25.634Z,20.60
2023-04-23T12:30:52.377Z,20.61
2023-04-23T12:33:20.687Z,20.65
2023-04-23T12:35:51.601Z,20.65
2023-04-23T12:38:26.489Z,20.67
2023-04-23T12:40:59.188Z,20.66
2023-04-23T12:43:26.808Z,20.64
2023-04-23T12:45:54.939Z,20.62
2023-04-23T12:48:21.528Z,20.62
2023-04-23T12:50:48.460Z,20.63
2023-04-23T12:53:15.026Z,20.62
2023-04-23T12:55:43.235Z,20.62
2023-04-23T12:58:09.812Z,20.63
2023-04-23T13:00:36.365Z,20.61
2023-04-23T13:03:03.197Z,20.59
2023-04-23T13:05:29.820Z,20.59
2023-04-23T13:07:56.957Z,20.57
2023-04-23T13:10:23.501Z,20.57
2023-04-23T13:12:50.011Z,20.56
2023-04-23T13:15:17.235Z,20.54
2023-04-23T13:17:45.744Z,20.52
2023-04-23T13:20:12.282Z,20.51
2023-04-23T13:22:38.795Z,20.51
2023-04-23T13:25:05.850Z,20.49
2023-04-23T13:27:32.421Z,20.49
2023-04-23T13:29:59.230Z,20.48
2023-04-23T13:32:28.008Z,20.48
2023-04-23T13:34:54.565Z,20.49
2023-04-23T13:37:21.189Z,20.48
2023-04-23T13:39:48.367Z,20.45
2023-04-23T13:42:14.930Z,20.42
2023-04-23T13:44:41.538Z,20.40
2023-04-23T13:47:08.355Z,20.37
2023-04-23T13:49:34.929Z,20.36
2023-04-23T13:52:06.455Z,20.37
2023-04-23T13:54:33.355Z,20.37
2023-04-23T13:57:01.012Z,20.35
2023-04-23T13:59:27.498Z,20.33
2023-04-23T14:01:54.040Z,20.32
2023-04-23T14:04:22.680Z,20.31
2023-04-23T14:06:49.467Z,20.30
2023-04-23T14:09:16.070Z,20.29
2023-04-23T14:11:42.677Z,20.28
2023-04-23T14:14:09.374Z,20.26
2023-04-23T14:16:35.964Z,20.27
2023-04-23T14:19:02.519Z,20.25
2023-04-23T14:21:29.123Z,20.27
2023-04-23T14:24:00.932Z,20.28
2023-04-23T14:26:47.930Z,20.27
2023-04-23T14:29:23.393Z,20.26
2023-04-23T14:31:50.434Z,20.26
2023-04-23T14:34:17.003Z,20.27
2023-04-23T14:36:44.610Z,20.27
2023-04-23T14:39:11.888Z,20.29
2023-04-23T14:41:40.139Z,20.30
2023-04-23T14:44:06.713Z,20.29
2023-04-23T14:46:33.311Z,20.29
2023-04-23T14:49:00.072Z,20.29
2023-04-23T14:51:27.420Z,20.29
2023-04-23T14:53:55.894Z,20.29
2023-04-23T14:56:23.202Z,20.29
2023-04-23T14:58:49.776Z,20.29
2023-04-23T15:01:16.486Z,20.29
2023-04-23T15:03:44.580Z,20.30
2023-04-23T15:06:11.412Z,20.31
2023-04-23T15:08:37.903Z,20.33
2023-04-23T15:11:06.297Z,20.34
2023-04-23T15:13:35.726Z,20.35
2023-04-23T15:16:05.681Z,20.35
2023-04-23T15:18:33.727Z,20.36
2023-04-23T15:21:03.558Z,20.36
2023-04-23T15:23:33.243Z,20.37
2023-04-23T15:25:59.836Z,20.39
2023-04-23T15:28:26.330Z,20.40
2023-04-23T15:30:53.083Z,20.39
2023-04-23T15:33:21.787Z,20.40
2023-04-23T15:35:51.509Z,20.39
2023-04-23T15:38:18.827Z,20.40
2023-04-23T15:40:45.553Z,20.39
2023-04-23T15:43:15.919Z,20.39
2023-04-23T15:45:43.212Z,20.39
2023-04-23T15:48:10.230Z,20.40
2023-04-23T15:50:39.716Z,20.41
2023-04-23T15:53:06.512Z,20.43
2023-04-23T15:55:34.107Z,20.43
2023-04-23T15:58:04.106Z,20.42
2023-04-23T16:00:31.360Z,20.42
2023-04-23T16:02:58.860Z,20.40
2023-04-23T16:05:25.498Z,20.38
2023-04-23T16:07:52.174Z,20.39
2023-04-23T16:10:18.889Z,20.37
2023-04-23T16:12:45.802Z,20.37
2023-04-23T16:15:12.902Z,20.36
2023-04-23T16:17:39.560Z,20.35
2023-04-23T16:20:06.732Z,20.34
2023-04-23T16:22:33.426Z,20.32
2023-04-23T16:25:00.340Z,20.32
2023-04-23T16:27:26.886Z,20.33
2023-04-23T16:29:53.389Z,20.34
2023-04-23T16:32:20.716Z,20.35
2023-04-23T16:34:47.367Z,20.35
2023-04-23T16:37:15.808Z,20.35
2023-04-23T16:39:43.734Z,20.37
2023-04-23T16:42:10.579Z,20.36
2023-04-23T16:44:37.255Z,20.36
2023-04-23T16:47:04.245Z,20.34
2023-04-23T16:49:30.810Z,20.34
2023-04-23T16:51:57.367Z,20.33
2023-04-23T16:54:23.873Z,20.32
2023-04-23T16:56:50.505Z,20.32
2023-04-23T16:59:17.044Z,20.31
2023-04-23T17:01:43.642Z,20.30
2023-04-23T17:04:10.502Z,20.29
2023-04-23T17:06:37.098Z,20.29
2023-04-23T17:09:08.808Z,20.27
2023-04-23T17:11:35.979Z,20.26
2023-04-23T17:14:02.561Z,20.24
2023-04-23T17:16:29.526Z,20.23
2023-04-23T17:18:56.730Z,20.21
2023-04-23T17:21:23.480Z,20.21
2023-04-23T17:23:50.321Z,20.22
2023-04-23T17:26:16.921Z,20.21
2023-04-23T17:28:43.538Z,20.22
2023-04-23T17:31:10.302Z,20.24
2023-04-23T17:33:36.996Z,20.23
2023-04-23T17:36:04.251Z,20.21
2023-04-23T17:38:31.005Z,20.20
2023-04-23T17:40:58.665Z,20.19
2023-04-23T17:43:25.241Z,20.18
2023-04-23T17:45:51.827Z,20.18
2023-04-23T17:48:19.234Z,20.18
2023-04-23T17:50:47.012Z,20.16
2023-04-23T17:53:13.619Z,20.16
2023-04-23T17:55:40.248Z,20.16
2023-04-23T17:58:07.488Z,20.14
2023-04-23T18:00:41.481Z,20.14
2023-04-23T18:03:09.439Z,20.15
2023-04-23T18:05:36.334Z,20.14
2023-04-23T18:08:03.306Z,20.15
2023-04-23T18:10:29.954Z,20.14
2023-04-23T18:12:56.791Z,20.14
2023-04-23T18:15:25.596Z,20.13
2023-04-23T18:17:54.633Z,20.14
2023-04-23T18:20:24.850Z,20.14
2023-04-23T18:22:53.501Z,20.14
2023-04-23T18:25:20.292Z,20.13
2023-04-23T18:27:46.971Z,20.12
2023-04-23T18:30:15.299Z,20.11
2023-04-23T18:32:47.088Z,20.11
2023-04-23T18:35:14.254Z,20.12
2023-04-23T18:37:52.699Z,20.11
2023-04-23T18:40:19.686Z,20.11
2023-04-23T18:42:46.288Z,20.13
2023-04-23T18:45:12.857Z,20.14
2023-04-23T18:47:49.941Z,20.14
2023-04-23T18:50:54.970Z,20.14
2023-04-23T18:53:22.254Z,20.15
2023-04-23T18:55:48.848Z,20.15
2023-04-23T18:58:15.409Z,20.14
2023-04-23T19:00:41.946Z,20.14
2023-04-23T19:03:19.942Z,20.15
2023-04-23T19:05:52.839Z,20.17
2023-04-23T19:08:19.367Z,20.19
2023-04-23T19:10:45.910Z,20.21
2023-04-23T19:13:12.492Z,20.26
2023-04-23T19:15:39.166Z,20.30
2023-04-23T19:18:06.154Z,20.33
2023-04-23T19:20:32.804Z,20.37
2023-04-23T19:22:59.311Z,20.40
2023-04-23T19:25:26.002Z,20.41
2023-04-23T19:27:52.498Z,20.46
2023-04-23T19:30:19.043Z,20.47
2023-04-23T19:32:45.600Z,20.50
2023-04-23T19:35:12.141Z,20.51
2023-04-23T19:37:38.680Z,20.54
2023-04-23T19:40:05.733Z,20.55
2023-04-23T19:42:32.635Z,20.58
2023-04-23T19:44:59.195Z,20.60
2023-04-23T19:47:25.834Z,20.61
2023-04-23T19:49:52.532Z,20.62
2023-04-23T19:52:23.271Z,20.63
2023-04-23T19:54:49.869Z,20.65
2023-04-23T19:57:18.431Z,20.67
2023-04-23T19:59:46.152Z,20.69
2023-04-23T20:02:13.023Z,20.70
2023-04-23T20:04:39.745Z,20.72
2023-04-23T20:07:06.936Z,20.74
2023-04-23T20:09:33.854Z,20.76
2023-04-23T20:12:01.414Z,20.76
2023-04-23T20:14:29.002Z,20.76
2023-04-23T20:16:56.214Z,20.76
2023-04-23T20:19:25.891Z,20.75
2023-04-23T20:21:53.526Z,20.73
2023-04-23T20:24:21.444Z,20.72
2023-04-23T20:26:48.298Z,20.71
2023-04-23T20:29:14.848Z,20.67
2023-04-23T20:31:41.855Z,20.65
2023-04-23T20:34:08.536Z,20.62
2023-04-23T20:36:35.697Z,20.58
2023-04-23T20:39:05.645Z,20.55
2023-04-23T20:41:36.577Z,20.51
2023-04-23T20:44:04.968Z,20.48
2023-04-23T20:46:32.371Z,20.43
2023-04-23T20:49:00.900Z,20.40
2023-04-23T20:51:33.067Z,20.37
2023-04-23T20:53:59.817Z,20.35
2023-04-23T20:56:29.108Z,20.31
2023-04-23T20:58:57.472Z,20.28
2023-04-23T21:01:25.274Z,20.26
2023-04-23T21:03:53.585Z,20.22
2023-04-23T21:06:21.644Z,20.19
2023-04-23T21:08:48.474Z,20.16
2023-04-23T21:11:17.513Z,20.12
2023-04-23T21:13:44.619Z,20.09
2023-04-23T21:16:14.025Z,20.06
2023-04-23T21:18:43.648Z,20.03
2023-04-23T21:21:10.529Z,20.01
2023-04-23T21:23:37.045Z,19.96
2023-04-23T21:26:03.612Z,19.94
2023-04-23T21:28:30.952Z,19.92
2023-04-23T21:31:05.736Z,19.88
2023-04-23T21:33:32.355Z,19.87
2023-04-23T21:35:58.850Z,19.85
2023-04-23T21:38:25.404Z,19.82
2023-04-23T21:40:51.953Z,19.81
2023-04-23T21:43:18.505Z,19.78
2023-04-23T21:45:45.754Z,19.76
2023-04-23T21:48:13.177Z,19.74
2023-04-23T21:50:39.859Z,19.72
2023-04-23T21:53:06.937Z,19.69
2023-04-23T21:55:33.515Z,19.68
2023-04-23T21:58:13.967Z,19.66
2023-04-23T22:00:44.594Z,19.66
2023-04-23T22:03:12.130Z,19.63
2023-04-23T22:05:40.802Z,19.61
2023-04-23T22:08:07.532Z,19.59
2023-04-23T22:10:34.367Z,19.56
2023-04-23T22:13:01.302Z,19.55
2023-04-23T22:15:29.075Z,19.53
2023-04-23T22:17:59.149Z,19.52
2023-04-23T22:20:25.723Z,19.49
2023-04-23T22:22:52.392Z,19.47
2023-04-23T22:25:19.454Z,19.45
2023-04-23T22:27:45.965Z,19.43
2023-04-23T22:30:12.734Z,19.41
2023-04-23T22:32:40.019Z,19.41
2023-04-23T22:35:07.980Z,19.39
2023-04-23T22:37:35.377Z,19.38
2023-04-23T22:40:02.423Z,19.35
2023-04-23T22:42:28.955Z,19.35
2023-04-23T22:44:55.517Z,19.33
2023-04-23T22:47:22.355Z,19.32
2023-04-23T22:49:49.477Z,19.30
2023-04-23T22:52:16.779Z,19.28
2023-04-23T22:54:43.833Z,19.27
2023-04-23T22:57:11.971Z,19.24
2023-04-23T22:59:41.908Z,19.23
2023-04-23T23:02:08.876Z,19.20
2023-04-23T23:04:38.460Z,19.19
2023-04-23T23:07:05.839Z,19.17
2023-04-23T23:09:32.703Z,19.14
2023-04-23T23:12:03.595Z,19.10
2023-04-23T23:14:30.751Z,19.08
2023-04-23T23:16:58.029Z,19.07
2023-04-23T23:19:26.875Z,19.05
2023-04-23T23:21:53.651Z,19.02
2023-04-23T23:24:20.201Z,18.99
2023-04-23T23:26:46.764Z,18.97
2023-04-23T23:29:13.269Z,18.95
2023-04-23T23:31:40.089Z,18.93
2023-04-23T23:34:06.693Z,18.90
2023-04-23T23:36:34.158Z,18.88
2023-04-23T23:39:00.981Z,18.88
2023-04-23T23:41:27.500Z,18.86
2023-04-23T23:43:54.086Z,18.86
2023-04-23T23:46:20.921Z,18.85
2023-04-23T23:48:47.588Z,18.84
2023-04-23T23:51:14.391Z,18.84
2023-04-23T23:53:40.967Z,18.82
2023-04-23T23:56:07.514Z,18.80
2023-04-23T23:58:34.026Z,18.80
